sensor_id;sensor_type;location;lat;lon;timestamp;temperature;humidity
42339;DHT22;27993;45.392;10.918;2024-03-22T00:02:13;12.40;99.90
42339;DHT22;27993;45.392;10.918;2024-03-22T00:04:44;12.40;99.90
42339;DHT22;27993;45.392;10.918;2024-03-22T00:07:14;12.40;99.90
42339;DHT22;27993;45.392;10.918;2024-03-22T00:09:45;12.50;99.90
42339;DHT22;27993;45.392;10.918;2024-03-22T00:12:15;12.40;99.90
42339;DHT22;27993;45.392;10.918;2024-03-22T00:14:46;12.30;99.90
42339;DHT22;27993;45.392;10.918;2024-03-22T00:17:17;12.30;99.90
42339;DHT22;27993;45.392;10.918;2024-03-22T00:19:47;12.40;99.90
42339;DHT22;27993;45.392;10.918;2024-03-22T00:22:18;12.50;99.90
42339;DHT22;27993;45.392;10.918;2024-03-22T00:24:48;12.50;99.90
42339;DHT22;27993;45.392;10.918;2024-03-22T00:27:19;12.60;99.90
42339;DHT22;27993;45.392;10.918;2024-03-22T00:29:49;12.60;99.90
42339;DHT22;27993;45.392;10.918;2024-03-22T00:32:20;12.50;99.90
42339;DHT22;27993;45.392;10.918;2024-03-22T00:34:50;12.50;99.90
42339;DHT22;27993;45.392;10.918;2024-03-22T00:37:21;12.50;99.90
42339;DHT22;27993;45.392;10.918;2024-03-22T00:39:51;12.40;99.90
42339;DHT22;27993;45.392;10.918;2024-03-22T00:42:22;12.40;99.90
42339;DHT22;27993;45.392;10.918;2024-03-22T00:44:52;12.40;99.90
42339;DHT22;27993;45.392;10.918;2024-03-22T00:47:23;12.30;99.90
42339;DHT22;27993;45.392;10.918;2024-03-22T00:49:53;12.20;99.90
42339;DHT22;27993;45.392;10.918;2024-03-22T00:52:24;12.10;99.90
42339;DHT22;27993;45.392;10.918;2024-03-22T00:54:55;12.20;99.90
42339;DHT22;27993;45.392;10.918;2024-03-22T00:57:25;12.20;99.90
42339;DHT22;27993;45.392;10.918;2024-03-22T00:59:56;12.10;99.90
42339;DHT22;27993;45.392;10.918;2024-03-22T01:02:26;12.10;99.90
42339;DHT22;27993;45.392;10.918;2024-03-22T01:04:57;12.10;99.90
42339;DHT22;27993;45.392;10.918;2024-03-22T01:07:27;12.30;99.90
42339;DHT22;27993;45.392;10.918;2024-03-22T01:09:58;12.30;99.90
42339;DHT22;27993;45.392;10.918;2024-03-22T01:12:28;12.30;99.90
42339;DHT22;27993;45.392;10.918;2024-03-22T01:14:59;12.20;99.90
42339;DHT22;27993;45.392;10.918;2024-03-22T01:17:29;12.10;99.90
42339;DHT22;27993;45.392;10.918;2024-03-22T01:20:00;12.20;99.90
42339;DHT22;27993;45.392;10.918;2024-03-22T01:22:31;12.10;99.90
42339;DHT22;27993;45.392;10.918;2024-03-22T01:25:01;12.20;99.90
42339;DHT22;27993;45.392;10.918;2024-03-22T01:27:32;12.10;99.90
42339;DHT22;27993;45.392;10.918;2024-03-22T01:30:02;12.20;99.90
42339;DHT22;27993;45.392;10.918;2024-03-22T01:32:34;12.10;99.90
42339;DHT22;27993;45.392;10.918;2024-03-22T01:35:05;12.10;99.90
42339;DHT22;27993;45.392;10.918;2024-03-22T01:37:36;12.10;99.90
42339;DHT22;27993;45.392;10.918;2024-03-22T01:40:07;12.10;99.90
42339;DHT22;27993;45.392;10.918;2024-03-22T01:42:38;12.10;99.90
42339;DHT22;27993;45.392;10.918;2024-03-22T01:45:09;12.10;99.90
42339;DHT22;27993;45.392;10.918;2024-03-22T01:47:41;12.00;99.90
42339;DHT22;27993;45.392;10.918;2024-03-22T01:50:12;11.90;99.90
42339;DHT22;27993;45.392;10.918;2024-03-22T01:52:42;12.00;99.90
42339;DHT22;27993;45.392;10.918;2024-03-22T01:55:13;12.00;99.90
42339;DHT22;27993;45.392;10.918;2024-03-22T01:57:44;12.00;99.90
42339;DHT22;27993;45.392;10.918;2024-03-22T02:00:14;11.90;99.90
42339;DHT22;27993;45.392;10.918;2024-03-22T02:02:45;11.80;99.90
42339;DHT22;27993;45.392;10.918;2024-03-22T02:05:16;11.70;99.90
42339;DHT22;27993;45.392;10.918;2024-03-22T02:07:49;11.60;99.90
42339;DHT22;27993;45.392;10.918;2024-03-22T02:10:19;11.60;99.90
42339;DHT22;27993;45.392;10.918;2024-03-22T02:12:50;11.50;99.90
42339;DHT22;27993;45.392;10.918;2024-03-22T02:15:21;11.40;99.90
42339;DHT22;27993;45.392;10.918;2024-03-22T02:17:51;11.30;99.90
42339;DHT22;27993;45.392;10.918;2024-03-22T02:20:22;11.30;99.90
42339;DHT22;27993;45.392;10.918;2024-03-22T02:22:52;11.40;99.90
42339;DHT22;27993;45.392;10.918;2024-03-22T02:25:23;11.40;99.90
42339;DHT22;27993;45.392;10.918;2024-03-22T02:27:53;11.20;99.90
42339;DHT22;27993;45.392;10.918;2024-03-22T02:30:24;11.00;99.90
42339;DHT22;27993;45.392;10.918;2024-03-22T02:32:54;10.80;99.90
42339;DHT22;27993;45.392;10.918;2024-03-22T02:35:25;10.80;99.90
42339;DHT22;27993;45.392;10.918;2024-03-22T02:37:55;10.90;99.90
42339;DHT22;27993;45.392;10.918;2024-03-22T02:40:28;10.60;99.90
42339;DHT22;27993;45.392;10.918;2024-03-22T02:42:59;10.80;99.90
42339;DHT22;27993;45.392;10.918;2024-03-22T02:45:30;10.80;99.90
42339;DHT22;27993;45.392;10.918;2024-03-22T02:48:01;10.70;99.90
42339;DHT22;27993;45.392;10.918;2024-03-22T02:50:34;10.90;99.90
42339;DHT22;27993;45.392;10.918;2024-03-22T02:53:05;10.70;99.90
42339;DHT22;27993;45.392;10.918;2024-03-22T02:55:39;10.70;99.90
42339;DHT22;27993;45.392;10.918;2024-03-22T02:58:10;10.80;99.90
42339;DHT22;27993;45.392;10.918;2024-03-22T03:00:40;10.50;99.90
42339;DHT22;27993;45.392;10.918;2024-03-22T03:03:11;10.60;99.90
42339;DHT22;27993;45.392;10.918;2024-03-22T03:05:41;10.80;99.90
42339;DHT22;27993;45.392;10.918;2024-03-22T03:08:12;10.70;99.90
42339;DHT22;27993;45.392;10.918;2024-03-22T03:10:42;10.70;99.90
42339;DHT22;27993;45.392;10.918;2024-03-22T03:13:13;10.70;99.90
42339;DHT22;27993;45.392;10.918;2024-03-22T03:15:43;10.80;99.90
42339;DHT22;27993;45.392;10.918;2024-03-22T03:18:14;10.90;99.90
42339;DHT22;27993;45.392;10.918;2024-03-22T03:20:44;10.80;99.90
42339;DHT22;27993;45.392;10.918;2024-03-22T03:23:15;10.80;99.90
42339;DHT22;27993;45.392;10.918;2024-03-22T03:25:45;10.60;99.90
42339;DHT22;27993;45.392;10.918;2024-03-22T03:28:16;10.60;99.90
42339;DHT22;27993;45.392;10.918;2024-03-22T03:30:46;10.60;99.90
42339;DHT22;27993;45.392;10.918;2024-03-22T03:33:17;10.70;99.90
42339;DHT22;27993;45.392;10.918;2024-03-22T03:35:47;10.60;99.90
42339;DHT22;27993;45.392;10.918;2024-03-22T03:38:18;10.50;99.90
42339;DHT22;27993;45.392;10.918;2024-03-22T03:40:48;10.40;99.90
42339;DHT22;27993;45.392;10.918;2024-03-22T03:43:19;10.30;99.90
42339;DHT22;27993;45.392;10.918;2024-03-22T03:45:49;10.30;99.90
42339;DHT22;27993;45.392;10.918;2024-03-22T03:48:20;10.50;99.90
42339;DHT22;27993;45.392;10.918;2024-03-22T03:50:54;10.60;99.90
42339;DHT22;27993;45.392;10.918;2024-03-22T03:53:33;10.60;99.90
42339;DHT22;27993;45.392;10.918;2024-03-22T03:56:03;10.60;99.90
42339;DHT22;27993;45.392;10.918;2024-03-22T03:58:34;10.60;99.90
42339;DHT22;27993;45.392;10.918;2024-03-22T04:01:07;10.60;99.90
42339;DHT22;27993;45.392;10.918;2024-03-22T04:03:39;10.60;99.90
42339;DHT22;27993;45.392;10.918;2024-03-22T04:06:09;10.50;99.90
42339;DHT22;27993;45.392;10.918;2024-03-22T04:08:40;10.40;99.90
42339;DHT22;27993;45.392;10.918;2024-03-22T04:11:10;10.50;99.90
42339;DHT22;27993;45.392;10.918;2024-03-22T04:13:41;10.40;99.90
42339;DHT22;27993;45.392;10.918;2024-03-22T04:16:12;10.20;99.90
42339;DHT22;27993;45.392;10.918;2024-03-22T04:18:42;10.20;99.90
42339;DHT22;27993;45.392;10.918;2024-03-22T04:21:13;10.30;99.90
42339;DHT22;27993;45.392;10.918;2024-03-22T04:23:44;10.30;99.90
42339;DHT22;27993;45.392;10.918;2024-03-22T04:26:14;10.30;99.90
42339;DHT22;27993;45.392;10.918;2024-03-22T04:28:45;10.20;99.90
42339;DHT22;27993;45.392;10.918;2024-03-22T04:31:15;9.90;99.90
42339;DHT22;27993;45.392;10.918;2024-03-22T04:33:46;9.80;99.90
42339;DHT22;27993;45.392;10.918;2024-03-22T04:36:16;9.70;99.90
42339;DHT22;27993;45.392;10.918;2024-03-22T04:38:47;9.90;99.90
42339;DHT22;27993;45.392;10.918;2024-03-22T04:41:18;10.00;99.90
42339;DHT22;27993;45.392;10.918;2024-03-22T04:43:48;10.10;99.90
42339;DHT22;27993;45.392;10.918;2024-03-22T04:46:19;10.00;99.90
42339;DHT22;27993;45.392;10.918;2024-03-22T04:48:49;10.10;99.90
42339;DHT22;27993;45.392;10.918;2024-03-22T04:51:20;10.10;99.90
42339;DHT22;27993;45.392;10.918;2024-03-22T04:53:50;10.10;99.90
42339;DHT22;27993;45.392;10.918;2024-03-22T04:56:21;10.10;99.90
42339;DHT22;27993;45.392;10.918;2024-03-22T04:58:51;10.10;99.90
42339;DHT22;27993;45.392;10.918;2024-03-22T05:01:22;10.20;99.90
42339;DHT22;27993;45.392;10.918;2024-03-22T05:03:53;10.10;99.90
42339;DHT22;27993;45.392;10.918;2024-03-22T05:06:25;10.20;99.90
42339;DHT22;27993;45.392;10.918;2024-03-22T05:08:55;10.20;99.90
42339;DHT22;27993;45.392;10.918;2024-03-22T05:11:26;10.30;99.90
42339;DHT22;27993;45.392;10.918;2024-03-22T05:13:57;10.30;99.90
42339;DHT22;27993;45.392;10.918;2024-03-22T05:16:27;10.40;99.90
42339;DHT22;27993;45.392;10.918;2024-03-22T05:18:58;10.50;99.90
42339;DHT22;27993;45.392;10.918;2024-03-22T05:21:29;10.50;99.90
42339;DHT22;27993;45.392;10.918;2024-03-22T05:23:59;10.50;99.90
42339;DHT22;27993;45.392;10.918;2024-03-22T05:26:30;10.50;99.90
42339;DHT22;27993;45.392;10.918;2024-03-22T05:29:06;10.60;99.90
42339;DHT22;27993;45.392;10.918;2024-03-22T05:31:45;10.60;99.90
42339;DHT22;27993;45.392;10.918;2024-03-22T05:34:16;10.60;99.90
42339;DHT22;27993;45.392;10.918;2024-03-22T05:36:46;10.50;99.90
42339;DHT22;27993;45.392;10.918;2024-03-22T05:39:17;10.50;99.90
42339;DHT22;27993;45.392;10.918;2024-03-22T05:41:47;10.60;99.90
42339;DHT22;27993;45.392;10.918;2024-03-22T05:44:18;10.70;99.90
42339;DHT22;27993;45.392;10.918;2024-03-22T05:46:48;10.90;99.90
42339;DHT22;27993;45.392;10.918;2024-03-22T05:49:19;11.20;99.90
42339;DHT22;27993;45.392;10.918;2024-03-22T05:51:50;11.40;99.90
42339;DHT22;27993;45.392;10.918;2024-03-22T05:54:20;11.70;99.90
42339;DHT22;27993;45.392;10.918;2024-03-22T05:56:51;12.00;99.90
42339;DHT22;27993;45.392;10.918;2024-03-22T05:59:21;12.20;99.90
42339;DHT22;27993;45.392;10.918;2024-03-22T06:01:52;12.40;99.90
42339;DHT22;27993;45.392;10.918;2024-03-22T06:04:22;12.80;99.90
42339;DHT22;27993;45.392;10.918;2024-03-22T06:06:54;13.00;99.90
42339;DHT22;27993;45.392;10.918;2024-03-22T06:09:24;13.30;99.90
42339;DHT22;27993;45.392;10.918;2024-03-22T06:12:04;13.60;99.90
42339;DHT22;27993;45.392;10.918;2024-03-22T06:14:35;13.70;99.90
42339;DHT22;27993;45.392;10.918;2024-03-22T06:17:05;13.80;99.90
42339;DHT22;27993;45.392;10.918;2024-03-22T06:19:36;14.40;99.90
42339;DHT22;27993;45.392;10.918;2024-03-22T06:22:07;14.70;99.90
42339;DHT22;27993;45.392;10.918;2024-03-22T06:24:37;15.20;99.90
42339;DHT22;27993;45.392;10.918;2024-03-22T06:27:08;15.20;99.90
42339;DHT22;27993;45.392;10.918;2024-03-22T06:29:38;15.40;99.90
42339;DHT22;27993;45.392;10.918;2024-03-22T06:32:09;15.80;99.90
42339;DHT22;27993;45.392;10.918;2024-03-22T06:34:39;16.10;99.90
42339;DHT22;27993;45.392;10.918;2024-03-22T06:37:10;16.30;99.90
42339;DHT22;27993;45.392;10.918;2024-03-22T06:39:40;16.60;99.90
42339;DHT22;27993;45.392;10.918;2024-03-22T06:42:11;17.00;99.90
42339;DHT22;27993;45.392;10.918;2024-03-22T06:44:41;17.40;99.90
42339;DHT22;27993;45.392;10.918;2024-03-22T06:47:15;17.40;99.90
42339;DHT22;27993;45.392;10.918;2024-03-22T06:49:45;17.30;99.90
42339;DHT22;27993;45.392;10.918;2024-03-22T06:52:16;18.00;99.90
42339;DHT22;27993;45.392;10.918;2024-03-22T06:54:48;18.70;99.90
42339;DHT22;27993;45.392;10.918;2024-03-22T06:57:19;19.20;99.90
42339;DHT22;27993;45.392;10.918;2024-03-22T06:59:49;19.70;99.90
42339;DHT22;27993;45.392;10.918;2024-03-22T07:02:20;19.90;99.90
42339;DHT22;27993;45.392;10.918;2024-03-22T07:04:50;20.30;99.90
42339;DHT22;27993;45.392;10.918;2024-03-22T07:07:22;20.70;99.90
42339;DHT22;27993;45.392;10.918;2024-03-22T07:09:52;20.70;99.90
42339;DHT22;27993;45.392;10.918;2024-03-22T07:12:23;20.30;99.90
42339;DHT22;27993;45.392;10.918;2024-03-22T07:14:54;20.60;99.90
42339;DHT22;27993;45.392;10.918;2024-03-22T07:17:25;20.90;99.90
42339;DHT22;27993;45.392;10.918;2024-03-22T07:19:56;20.50;99.90
42339;DHT22;27993;45.392;10.918;2024-03-22T07:22:27;20.60;99.90
42339;DHT22;27993;45.392;10.918;2024-03-22T07:24:57;20.80;99.90
42339;DHT22;27993;45.392;10.918;2024-03-22T07:27:29;20.90;99.90
42339;DHT22;27993;45.392;10.918;2024-03-22T07:30:01;21.10;99.90
42339;DHT22;27993;45.392;10.918;2024-03-22T07:32:32;21.00;99.90
42339;DHT22;27993;45.392;10.918;2024-03-22T07:35:02;21.20;99.90
42339;DHT22;27993;45.392;10.918;2024-03-22T07:37:33;21.80;99.90
42339;DHT22;27993;45.392;10.918;2024-03-22T07:40:05;22.00;99.90
42339;DHT22;27993;45.392;10.918;2024-03-22T07:42:36;22.20;99.90
42339;DHT22;27993;45.392;10.918;2024-03-22T07:45:07;22.30;99.90
42339;DHT22;27993;45.392;10.918;2024-03-22T07:47:38;22.90;99.90
42339;DHT22;27993;45.392;10.918;2024-03-22T07:50:09;23.00;99.90
42339;DHT22;27993;45.392;10.918;2024-03-22T07:52:39;23.80;99.90
42339;DHT22;27993;45.392;10.918;2024-03-22T07:55:10;24.00;99.90
42339;DHT22;27993;45.392;10.918;2024-03-22T07:57:40;24.30;99.90
42339;DHT22;27993;45.392;10.918;2024-03-22T08:00:11;24.50;99.90
42339;DHT22;27993;45.392;10.918;2024-03-22T08:02:41;24.30;99.90
42339;DHT22;27993;45.392;10.918;2024-03-22T13:50:12;23.50;82.90
42339;DHT22;27993;45.392;10.918;2024-03-22T13:52:42;22.70;88.90
42339;DHT22;27993;45.392;10.918;2024-03-22T14:09:08;22.90;87.20
42339;DHT22;27993;45.392;10.918;2024-03-22T14:11:41;22.80;91.40
42339;DHT22;27993;45.392;10.918;2024-03-22T14:14:13;22.60;91.50
42339;DHT22;27993;45.392;10.918;2024-03-22T14:16:43;22.50;91.30
42339;DHT22;27993;45.392;10.918;2024-03-22T14:19:14;22.20;91.10
42339;DHT22;27993;45.392;10.918;2024-03-22T14:21:46;22.30;91.20
42339;DHT22;27993;45.392;10.918;2024-03-22T14:24:16;22.30;92.00
42339;DHT22;27993;45.392;10.918;2024-03-22T14:26:47;22.20;90.70
42339;DHT22;27993;45.392;10.918;2024-03-22T14:29:18;22.20;91.60
42339;DHT22;27993;45.392;10.918;2024-03-22T14:31:49;22.20;90.90
42339;DHT22;27993;45.392;10.918;2024-03-22T14:34:20;22.10;91.60
42339;DHT22;27993;45.392;10.918;2024-03-22T14:36:50;21.90;91.80
42339;DHT22;27993;45.392;10.918;2024-03-22T14:39:21;21.90;92.30
42339;DHT22;27993;45.392;10.918;2024-03-22T14:41:52;21.90;92.50
42339;DHT22;27993;45.392;10.918;2024-03-22T14:44:22;21.90;92.30
42339;DHT22;27993;45.392;10.918;2024-03-22T14:46:53;21.80;92.60
42339;DHT22;27993;45.392;10.918;2024-03-22T14:49:24;21.80;93.30
42339;DHT22;27993;45.392;10.918;2024-03-22T14:51:55;21.80;92.80
42339;DHT22;27993;45.392;10.918;2024-03-22T14:54:26;21.80;93.00
42339;DHT22;27993;45.392;10.918;2024-03-22T14:56:57;21.60;92.90
42339;DHT22;27993;45.392;10.918;2024-03-22T14:59:28;21.50;92.80
42339;DHT22;27993;45.392;10.918;2024-03-22T15:01:59;21.60;93.30
42339;DHT22;27993;45.392;10.918;2024-03-22T15:04:29;21.40;92.90
42339;DHT22;27993;45.392;10.918;2024-03-22T15:07:00;21.30;92.60
42339;DHT22;27993;45.392;10.918;2024-03-22T15:09:30;21.30;93.00
42339;DHT22;27993;45.392;10.918;2024-03-22T15:12:02;21.40;93.40
42339;DHT22;27993;45.392;10.918;2024-03-22T15:14:33;21.30;93.00
42339;DHT22;27993;45.392;10.918;2024-03-22T15:17:03;21.40;92.90
42339;DHT22;27993;45.392;10.918;2024-03-22T15:19:35;21.30;92.60
42339;DHT22;27993;45.392;10.918;2024-03-22T15:22:05;21.30;92.80
42339;DHT22;27993;45.392;10.918;2024-03-22T15:24:36;21.40;92.50
42339;DHT22;27993;45.392;10.918;2024-03-22T15:27:07;21.40;92.50
42339;DHT22;27993;45.392;10.918;2024-03-22T15:29:41;21.40;93.30
42339;DHT22;27993;45.392;10.918;2024-03-22T15:32:11;21.20;92.70
42339;DHT22;27993;45.392;10.918;2024-03-22T15:34:42;21.10;93.20
42339;DHT22;27993;45.392;10.918;2024-03-22T15:37:13;21.10;93.40
42339;DHT22;27993;45.392;10.918;2024-03-22T15:39:43;21.20;94.10
42339;DHT22;27993;45.392;10.918;2024-03-22T15:42:14;21.30;94.10
42339;DHT22;27993;45.392;10.918;2024-03-22T15:44:44;21.20;93.10
42339;DHT22;27993;45.392;10.918;2024-03-22T15:47:15;21.20;93.10
42339;DHT22;27993;45.392;10.918;2024-03-22T15:49:46;21.10;93.50
42339;DHT22;27993;45.392;10.918;2024-03-22T15:52:16;21.00;94.30
42339;DHT22;27993;45.392;10.918;2024-03-22T15:54:47;20.80;94.10
42339;DHT22;27993;45.392;10.918;2024-03-22T15:57:17;20.80;94.20
42339;DHT22;27993;45.392;10.918;2024-03-22T15:59:48;20.70;94.30
42339;DHT22;27993;45.392;10.918;2024-03-22T16:02:19;20.70;94.60
42339;DHT22;27993;45.392;10.918;2024-03-22T16:04:50;20.80;94.40
42339;DHT22;27993;45.392;10.918;2024-03-22T16:07:21;20.70;94.10
42339;DHT22;27993;45.392;10.918;2024-03-22T16:09:51;20.70;94.60
42339;DHT22;27993;45.392;10.918;2024-03-22T16:12:22;20.70;94.80
42339;DHT22;27993;45.392;10.918;2024-03-22T16:14:52;20.70;94.60
42339;DHT22;27993;45.392;10.918;2024-03-22T16:17:24;20.60;94.30
42339;DHT22;27993;45.392;10.918;2024-03-22T16:19:54;20.60;94.40
42339;DHT22;27993;45.392;10.918;2024-03-22T16:22:25;20.60;94.60
42339;DHT22;27993;45.392;10.918;2024-03-22T16:24:56;20.70;95.10
42339;DHT22;27993;45.392;10.918;2024-03-22T16:27:26;20.50;95.50
42339;DHT22;27993;45.392;10.918;2024-03-22T16:29:57;20.50;95.90
42339;DHT22;27993;45.392;10.918;2024-03-22T16:32:27;20.40;96.10
42339;DHT22;27993;45.392;10.918;2024-03-22T16:34:58;20.40;96.60
42339;DHT22;27993;45.392;10.918;2024-03-22T16:37:28;20.30;96.90
42339;DHT22;27993;45.392;10.918;2024-03-22T16:39:59;20.20;97.00
42339;DHT22;27993;45.392;10.918;2024-03-22T16:42:30;20.20;97.30
42339;DHT22;27993;45.392;10.918;2024-03-22T16:45:00;20.10;97.50
42339;DHT22;27993;45.392;10.918;2024-03-22T16:47:31;20.10;97.80
42339;DHT22;27993;45.392;10.918;2024-03-22T16:50:01;20.00;97.50
42339;DHT22;27993;45.392;10.918;2024-03-22T16:52:32;19.90;97.70
42339;DHT22;27993;45.392;10.918;2024-03-22T16:55:03;19.90;97.90
42339;DHT22;27993;45.392;10.918;2024-03-22T16:57:35;19.90;98.40
42339;DHT22;27993;45.392;10.918;2024-03-22T17:00:06;19.80;98.20
42339;DHT22;27993;45.392;10.918;2024-03-22T17:02:39;19.80;98.30
42339;DHT22;27993;45.392;10.918;2024-03-22T17:05:10;19.70;98.40
42339;DHT22;27993;45.392;10.918;2024-03-22T17:07:41;19.70;98.30
42339;DHT22;27993;45.392;10.918;2024-03-22T17:10:12;19.60;98.20
42339;DHT22;27993;45.392;10.918;2024-03-22T17:12:42;19.60;98.60
42339;DHT22;27993;45.392;10.918;2024-03-22T17:15:13;19.50;98.80
42339;DHT22;27993;45.392;10.918;2024-03-22T17:17:44;19.50;99.00
42339;DHT22;27993;45.392;10.918;2024-03-22T17:20:15;19.50;99.30
42339;DHT22;27993;45.392;10.918;2024-03-22T17:22:46;19.40;99.40
42339;DHT22;27993;45.392;10.918;2024-03-22T17:25:19;19.30;99.60
42339;DHT22;27993;45.392;10.918;2024-03-22T17:27:50;19.30;99.80
42339;DHT22;27993;45.392;10.918;2024-03-22T17:30:23;19.20;99.80
42339;DHT22;27993;45.392;10.918;2024-03-22T17:32:54;19.20;99.90
42339;DHT22;27993;45.392;10.918;2024-03-22T17:35:24;19.20;99.90
42339;DHT22;27993;45.392;10.918;2024-03-22T17:37:56;19.10;99.90
42339;DHT22;27993;45.392;10.918;2024-03-22T17:40:27;19.00;99.90
42339;DHT22;27993;45.392;10.918;2024-03-22T17:43:00;19.00;99.90
42339;DHT22;27993;45.392;10.918;2024-03-22T17:45:31;19.00;99.90
42339;DHT22;27993;45.392;10.918;2024-03-22T17:48:02;18.90;99.90
42339;DHT22;27993;45.392;10.918;2024-03-22T17:50:32;18.90;99.90
42339;DHT22;27993;45.392;10.918;2024-03-22T17:53:03;18.90;99.90
42339;DHT22;27993;45.392;10.918;2024-03-22T17:55:34;18.80;99.90
42339;DHT22;27993;45.392;10.918;2024-03-22T17:58:04;18.70;99.90
42339;DHT22;27993;45.392;10.918;2024-03-22T18:00:35;18.60;99.90
42339;DHT22;27993;45.392;10.918;2024-03-22T18:03:05;18.60;99.90
42339;DHT22;27993;45.392;10.918;2024-03-22T18:05:36;18.40;99.90
42339;DHT22;27993;45.392;10.918;2024-03-22T18:08:07;18.30;99.90
42339;DHT22;27993;45.392;10.918;2024-03-22T18:10:37;18.30;99.90
42339;DHT22;27993;45.392;10.918;2024-03-22T18:13:08;18.20;99.90
42339;DHT22;27993;45.392;10.918;2024-03-22T18:15:39;18.20;99.90
42339;DHT22;27993;45.392;10.918;2024-03-22T18:18:10;18.10;99.90
42339;DHT22;27993;45.392;10.918;2024-03-22T18:20:40;18.10;99.90
42339;DHT22;27993;45.392;10.918;2024-03-22T18:23:13;18.10;99.90
42339;DHT22;27993;45.392;10.918;2024-03-22T18:25:47;18.00;99.90
42339;DHT22;27993;45.392;10.918;2024-03-22T18:28:18;18.00;99.90
42339;DHT22;27993;45.392;10.918;2024-03-22T18:30:48;17.90;99.90
42339;DHT22;27993;45.392;10.918;2024-03-22T18:33:19;17.90;99.90
42339;DHT22;27993;45.392;10.918;2024-03-22T18:35:50;17.90;99.90
42339;DHT22;27993;45.392;10.918;2024-03-22T18:38:20;17.80;99.90
42339;DHT22;27993;45.392;10.918;2024-03-22T18:40:51;17.80;99.90
42339;DHT22;27993;45.392;10.918;2024-03-22T18:43:25;17.70;99.90
42339;DHT22;27993;45.392;10.918;2024-03-22T18:45:56;17.70;99.90
42339;DHT22;27993;45.392;10.918;2024-03-22T18:48:26;17.60;99.90
42339;DHT22;27993;45.392;10.918;2024-03-22T18:50:57;17.50;99.90
42339;DHT22;27993;45.392;10.918;2024-03-22T18:53:28;17.50;99.90
42339;DHT22;27993;45.392;10.918;2024-03-22T18:55:59;17.50;99.90
42339;DHT22;27993;45.392;10.918;2024-03-22T18:58:30;17.50;99.90
42339;DHT22;27993;45.392;10.918;2024-03-22T19:01:00;17.40;99.90
42339;DHT22;27993;45.392;10.918;2024-03-22T19:03:31;17.30;99.90
42339;DHT22;27993;45.392;10.918;2024-03-22T19:06:01;17.30;99.90
42339;DHT22;27993;45.392;10.918;2024-03-22T19:08:32;17.30;99.90
42339;DHT22;27993;45.392;10.918;2024-03-22T19:11:03;17.30;99.90
42339;DHT22;27993;45.392;10.918;2024-03-22T19:13:33;17.30;99.90
42339;DHT22;27993;45.392;10.918;2024-03-22T19:16:04;17.20;99.90
42339;DHT22;27993;45.392;10.918;2024-03-22T19:18:35;17.20;99.90
42339;DHT22;27993;45.392;10.918;2024-03-22T19:21:05;17.20;99.90
42339;DHT22;27993;45.392;10.918;2024-03-22T19:23:37;17.20;99.90
42339;DHT22;27993;45.392;10.918;2024-03-22T19:26:08;17.10;99.90
42339;DHT22;27993;45.392;10.918;2024-03-22T19:28:39;17.10;99.90
42339;DHT22;27993;45.392;10.918;2024-03-22T19:31:09;16.90;99.90
42339;DHT22;27993;45.392;10.918;2024-03-22T19:33:40;16.70;99.90
42339;DHT22;27993;45.392;10.918;2024-03-22T19:36:12;16.60;99.90
42339;DHT22;27993;45.392;10.918;2024-03-22T19:38:42;16.60;99.90
42339;DHT22;27993;45.392;10.918;2024-03-22T19:41:13;16.60;99.90
42339;DHT22;27993;45.392;10.918;2024-03-22T19:43:44;16.60;99.90
42339;DHT22;27993;45.392;10.918;2024-03-22T19:46:16;16.40;99.90
42339;DHT22;27993;45.392;10.918;2024-03-22T19:48:46;16.50;99.90
42339;DHT22;27993;45.392;10.918;2024-03-22T19:51:17;16.60;99.90
42339;DHT22;27993;45.392;10.918;2024-03-22T19:53:48;16.60;99.90
42339;DHT22;27993;45.392;10.918;2024-03-22T19:56:18;16.50;99.90
42339;DHT22;27993;45.392;10.918;2024-03-22T19:58:49;16.30;99.90
42339;DHT22;27993;45.392;10.918;2024-03-22T20:01:20;16.20;99.90
42339;DHT22;27993;45.392;10.918;2024-03-22T20:03:50;16.20;99.90
42339;DHT22;27993;45.392;10.918;2024-03-22T20:06:21;16.20;99.90
42339;DHT22;27993;45.392;10.918;2024-03-22T20:08:52;16.20;99.90
42339;DHT22;27993;45.392;10.918;2024-03-22T20:11:23;16.10;99.90
42339;DHT22;27993;45.392;10.918;2024-03-22T20:13:54;16.00;99.90
42339;DHT22;27993;45.392;10.918;2024-03-22T20:16:28;16.10;99.90
42339;DHT22;27993;45.392;10.918;2024-03-22T20:18:58;15.90;99.90
42339;DHT22;27993;45.392;10.918;2024-03-22T20:21:29;16.10;99.90
42339;DHT22;27993;45.392;10.918;2024-03-22T20:24:00;16.00;99.90
42339;DHT22;27993;45.392;10.918;2024-03-22T20:26:32;15.80;99.90
42339;DHT22;27993;45.392;10.918;2024-03-22T20:29:03;15.60;99.90
42339;DHT22;27993;45.392;10.918;2024-03-22T20:31:33;15.70;99.90
42339;DHT22;27993;45.392;10.918;2024-03-22T20:34:09;15.80;99.90
42339;DHT22;27993;45.392;10.918;2024-03-22T20:36:40;15.70;99.90
